Time;durP1;ratioP1;P1;durP2;ratioP2;P2;SDS_P1;SDS_P2;PMS_P1;PMS_P2;Temp;Humidity;BMP_temperature;BMP_pressure;BME280_temperature;BME280_humidity;BME280_pressure;Samples;Min_cycle;Max_cycle;Signal;HPM_P1;HPM_P2
2022/05/07 00:01:55;;;;;;;5.10;4.60;;;;;;;;;;4931321;29;20051;-71
2022/05/07 00:04:20;;;;;;;5.97;4.90;;;;;;;;;;4926728;29;20147;-70
2022/05/07 00:06:46;;;;;;;4.88;4.38;;;;;;;;;;4926247;29;20044;-71
2022/05/07 00:09:11;;;;;;;4.88;4.38;;;;;;;;;;4934057;28;20038;-71
2022/05/07 00:11:37;;;;;;;6.82;4.18;;;;;;;;;;4931146;29;20406;-71
2022/05/07 00:14:02;;;;;;;5.15;4.43;;;;;;;;;;4926403;29;20122;-70
2022/05/07 00:19:12;;;;;;;5.15;4.65;;;;;;;;;;4940570;28;20043;-71
2022/05/07 00:21:37;;;;;;;5.47;4.40;;;;;;;;;;4933510;29;20049;-71
2022/05/07 00:24:03;;;;;;;8.55;4.30;;;;;;;;;;4926994;28;20043;-71
2022/05/07 00:26:29;;;;;;;7.82;4.25;;;;;;;;;;4926254;29;20031;-71
2022/05/07 00:28:54;;;;;;;4.55;3.88;;;;;;;;;;4940410;28;20500;-71
2022/05/07 00:31:20;;;;;;;4.57;4.15;;;;;;;;;;4944570;28;20382;-71
2022/05/07 00:33:46;;;;;;;4.25;3.85;;;;;;;;;;4941281;28;20050;-71
2022/05/07 00:36:11;;;;;;;3.75;3.20;;;;;;;;;;4945397;28;20043;-70
2022/05/07 00:38:37;;;;;;;4.40;3.70;;;;;;;;;;4939920;28;20039;-70
2022/05/07 00:41:02;;;;;;;4.03;3.72;;;;;;;;;;4940465;28;20040;-70
2022/05/07 00:43:35;;;;;;;7.60;5.43;;;;;;;;;;4947342;28;20042;-70
2022/05/07 00:46:01;;;;;;;5.50;4.80;;;;;;;;;;4933793;29;20039;-70
2022/05/07 00:48:26;;;;;;;8.25;4.75;;;;;;;;;;4925492;29;20103;-70
2022/05/07 00:53:38;;;;;;;8.27;5.40;;;;;;;;;;4949382;28;20035;-70
2022/05/07 00:56:04;;;;;;;8.15;6.57;;;;;;;;;;4940690;28;20035;-70
2022/05/07 00:58:30;;;;;;;11.18;7.25;;;;;;;;;;4940230;28;20085;-70
2022/05/07 01:00:56;;;;;;;14.88;9.73;;;;;;;;;;4925572;29;20988;-70
2022/05/07 01:03:22;;;;;;;17.25;10.50;;;;;;;;;;4941081;28;20065;-70
2022/05/07 01:05:48;;;;;;;14.65;11.63;;;;;;;;;;4934637;29;20806;-70
2022/05/07 01:08:14;;;;;;;16.35;12.65;;;;;;;;;;4924883;29;20035;-70
2022/05/07 01:10:42;;;;;;;19.33;13.23;;;;;;;;;;4925735;29;20036;-70
2022/05/07 01:13:09;;;;;;;19.02;13.93;;;;;;;;;;4951410;28;20116;-70
2022/05/07 01:15:46;;;;;;;20.13;14.35;;;;;;;;;;4932448;29;20023;-70
2022/05/07 01:18:15;;;;;;;18.60;14.57;;;;;;;;;;4947156;28;20044;-70
2022/05/07 01:20:41;;;;;;;21.10;14.35;;;;;;;;;;4947635;28;20070;-70
2022/05/07 01:23:08;;;;;;;18.45;14.48;;;;;;;;;;4925291;28;20036;-70
2022/05/07 01:25:34;;;;;;;20.25;15.27;;;;;;;;;;4939039;28;20078;-70
2022/05/07 01:28:00;;;;;;;21.00;15.80;;;;;;;;;;4949146;28;20074;-70
2022/05/07 01:30:27;;;;;;;22.45;15.70;;;;;;;;;;4945327;28;20070;-71
2022/05/07 01:32:53;;;;;;;20.05;15.20;;;;;;;;;;4934824;28;20130;-71
2022/05/07 01:35:19;;;;;;;22.00;16.02;;;;;;;;;;4938662;28;20031;-72
2022/05/07 01:37:47;;;;;;;20.02;15.35;;;;;;;;;;4941140;28;20036;-72
2022/05/07 01:40:13;;;;;;;20.30;15.90;;;;;;;;;;4940376;28;20034;-72
2022/05/07 01:42:41;;;;;;;22.95;16.15;;;;;;;;;;4939528;28;20043;-72
2022/05/07 01:45:10;;;;;;;18.20;14.63;;;;;;;;;;4947476;28;20118;-72
2022/05/07 01:50:27;;;;;;;22.43;15.57;;;;;;;;;;4939388;28;20476;-71
2022/05/07 01:52:52;;;;;;;26.17;16.60;;;;;;;;;;4939648;28;20299;-71
2022/05/07 01:55:19;;;;;;;24.23;16.33;;;;;;;;;;4907905;29;20046;-72
2022/05/07 01:57:47;;;;;;;23.42;15.27;;;;;;;;;;4938463;28;20881;-72
2022/05/07 02:00:13;;;;;;;20.77;15.60;;;;;;;;;;4950915;28;20036;-72
2022/05/07 02:02:40;;;;;;;21.75;14.95;;;;;;;;;;4946652;28;20042;-71
2022/05/07 02:05:14;;;;;;;20.45;15.05;;;;;;;;;;4944305;28;20545;-71
2022/05/07 02:07:39;;;;;;;22.48;14.70;;;;;;;;;;4924211;29;20067;-72
2022/05/07 02:10:06;;;;;;;19.63;14.77;;;;;;;;;;4938279;28;20039;-72
2022/05/07 02:12:32;;;;;;;19.33;14.50;;;;;;;;;;4924361;29;20051;-72
2022/05/07 02:14:59;;;;;;;18.27;13.80;;;;;;;;;;4938943;28;20046;-72
2022/05/07 02:17:25;;;;;;;17.88;14.23;;;;;;;;;;4943988;28;20555;-72
2022/05/07 02:19:51;;;;;;;21.00;15.05;;;;;;;;;;4939806;28;20127;-72
2022/05/07 02:22:16;;;;;;;19.52;14.55;;;;;;;;;;4929716;28;20490;-72
2022/05/07 02:24:42;;;;;;;18.73;14.00;;;;;;;;;;4946407;28;20032;-72
2022/05/07 02:27:08;;;;;;;20.73;15.45;;;;;;;;;;4945848;28;20130;-71
2022/05/07 02:29:33;;;;;;;20.88;14.27;;;;;;;;;;4939053;28;20035;-72
2022/05/07 02:32:06;;;;;;;19.33;14.57;;;;;;;;;;4923569;29;20078;-71
2022/05/07 02:34:36;;;;;;;20.65;14.48;;;;;;;;;;4938538;28;20035;-72
2022/05/07 02:37:04;;;;;;;19.85;14.32;;;;;;;;;;4937958;28;20107;-71
2022/05/07 02:39:30;;;;;;;18.35;13.85;;;;;;;;;;4938101;28;20114;-71
2022/05/07 02:44:43;;;;;;;19.23;14.60;;;;;;;;;;4953505;28;20031;-71
2022/05/07 02:47:09;;;;;;;20.15;15.02;;;;;;;;;;4924647;28;20046;-71
2022/05/07 02:49:35;;;;;;;18.60;14.13;;;;;;;;;;4938578;28;20031;-71
2022/05/07 02:52:01;;;;;;;19.23;14.93;;;;;;;;;;4940891;28;20126;-71
2022/05/07 02:54:27;;;;;;;21.70;15.25;;;;;;;;;;4942626;28;20123;-71
2022/05/07 02:56:54;;;;;;;20.00;15.40;;;;;;;;;;4938944;29;20079;-71
2022/05/07 02:59:19;;;;;;;19.23;15.25;;;;;;;;;;4937688;28;21037;-71
2022/05/07 03:01:46;;;;;;;21.60;15.57;;;;;;;;;;4938422;28;20126;-71
2022/05/07 03:04:14;;;;;;;25.25;16.77;;;;;;;;;;4937649;28;20042;-71
2022/05/07 03:06:39;;;;;;;23.65;16.40;;;;;;;;;;4930587;29;20050;-70
2022/05/07 03:09:05;;;;;;;24.83;17.17;;;;;;;;;;4930607;28;20238;-71
2022/05/07 03:11:33;;;;;;;22.52;16.00;;;;;;;;;;4938139;28;20102;-71
2022/05/07 03:14:04;;;;;;;26.40;17.50;;;;;;;;;;4938359;28;20401;-72
2022/05/07 03:16:31;;;;;;;25.55;17.15;;;;;;;;;;4936868;29;20059;-71
2022/05/07 03:18:57;;;;;;;25.10;17.15;;;;;;;;;;4937192;28;20046;-71
2022/05/07 03:21:23;;;;;;;25.70;18.02;;;;;;;;;;4938076;28;20099;-71
2022/05/07 03:23:48;;;;;;;24.85;17.00;;;;;;;;;;4938205;28;20035;-71
2022/05/07 03:26:16;;;;;;;27.27;17.27;;;;;;;;;;4939007;28;20032;-71
2022/05/07 03:28:42;;;;;;;29.75;18.20;;;;;;;;;;4924128;29;20043;-71
2022/05/07 03:31:10;;;;;;;27.73;20.40;;;;;;;;;;4942891;28;20497;-71
2022/05/07 03:33:38;;;;;;;29.08;19.98;;;;;;;;;;4925543;29;20043;-71
2022/05/07 03:36:03;;;;;;;30.08;20.00;;;;;;;;;;4922735;29;20032;-71
2022/05/07 03:38:29;;;;;;;29.20;19.42;;;;;;;;;;4938509;28;20039;-72
2022/05/07 03:41:03;;;;;;;26.85;20.05;;;;;;;;;;4947065;28;20039;-71
2022/05/07 03:43:33;;;;;;;27.60;18.88;;;;;;;;;;4936670;28;20036;-72
2022/05/07 03:45:58;;;;;;;27.52;19.27;;;;;;;;;;4939165;28;20036;-72
2022/05/07 03:48:26;;;;;;;28.58;18.58;;;;;;;;;;4929826;29;20349;-72
2022/05/07 03:50:53;;;;;;;27.08;17.90;;;;;;;;;;4940844;28;20039;-72
2022/05/07 03:53:31;;;;;;;32.53;18.88;;;;;;;;;;4930395;29;20036;-72
2022/05/07 03:56:14;;;;;;;25.60;17.83;;;;;;;;;;4929257;29;20032;-71
2022/05/07 03:58:40;;;;;;;29.38;19.02;;;;;;;;;;4937304;28;20039;-72
2022/05/07 04:01:08;;;;;;;26.30;19.02;;;;;;;;;;4936938;28;20063;-72
2022/05/07 04:03:34;;;;;;;25.88;17.77;;;;;;;;;;4937601;28;20409;-72
2022/05/07 04:05:59;;;;;;;27.23;18.52;;;;;;;;;;4937913;28;20127;-71
2022/05/07 04:08:27;;;;;;;29.30;19.15;;;;;;;;;;4937432;28;20111;-72
2022/05/07 04:10:54;;;;;;;26.17;18.02;;;;;;;;;;4924591;29;20493;-72
2022/05/07 04:13:25;;;;;;;25.60;17.37;;;;;;;;;;4949169;28;20044;-72
2022/05/07 04:15:57;;;;;;;26.13;18.10;;;;;;;;;;4945575;28;21265;-72
2022/05/07 04:18:25;;;;;;;24.70;17.15;;;;;;;;;;4940399;28;20098;-71
2022/05/07 04:20:55;;;;;;;25.83;16.95;;;;;;;;;;4941233;28;20035;-72
2022/05/07 04:23:21;;;;;;;25.63;17.88;;;;;;;;;;4948250;28;20097;-72
2022/05/07 04:25:47;;;;;;;24.08;17.90;;;;;;;;;;4940725;28;20036;-72
2022/05/07 04:28:16;;;;;;;24.63;16.92;;;;;;;;;;4940398;28;20032;-72
2022/05/07 04:30:45;;;;;;;25.02;17.70;;;;;;;;;;4924717;29;20071;-73
2022/05/07 04:33:11;;;;;;;30.02;17.63;;;;;;;;;;4944831;28;20118;-72
2022/05/07 04:35:37;;;;;;;24.17;17.23;;;;;;;;;;4940278;28;20428;-72
2022/05/07 04:38:06;;;;;;;25.52;17.00;;;;;;;;;;4944049;28;20401;-72
2022/05/07 04:40:32;;;;;;;29.00;18.80;;;;;;;;;;4940836;28;20028;-72
2022/05/07 04:42:59;;;;;;;25.67;18.05;;;;;;;;;;4944991;28;20041;-73
2022/05/07 04:45:27;;;;;;;22.95;16.08;;;;;;;;;;4943390;28;20028;-73
2022/05/07 04:48:06;;;;;;;23.67;16.70;;;;;;;;;;4951717;28;20034;-71
2022/05/07 04:50:34;;;;;;;21.55;15.30;;;;;;;;;;4927924;29;20091;-71
2022/05/07 04:53:16;;;;;;;21.02;15.20;;;;;;;;;;4940562;28;20421;-71
2022/05/07 04:55:42;;;;;;;20.83;14.30;;;;;;;;;;4941478;28;20501;-71
2022/05/07 04:58:07;;;;;;;18.27;13.27;;;;;;;;;;4932684;29;20401;-71
2022/05/07 05:00:36;;;;;;;18.10;13.85;;;;;;;;;;4945473;28;20062;-71
2022/05/07 05:03:15;;;;;;;17.05;12.80;;;;;;;;;;4939722;28;20035;-71
2022/05/07 05:05:50;;;;;;;18.35;12.48;;;;;;;;;;4939003;28;20904;-71
2022/05/07 05:08:30;;;;;;;17.02;12.30;;;;;;;;;;4939599;28;20039;-71
2022/05/07 05:10:57;;;;;;;13.75;11.07;;;;;;;;;;4923939;29;20055;-71
2022/05/07 05:13:24;;;;;;;13.70;11.15;;;;;;;;;;4939544;28;20114;-71
2022/05/07 05:15:51;;;;;;;13.50;10.35;;;;;;;;;;4939391;28;20058;-70
2022/05/07 05:18:30;;;;;;;16.95;12.18;;;;;;;;;;4946546;28;20126;-71
2022/05/07 05:20:56;;;;;;;14.18;11.80;;;;;;;;;;4944276;28;20634;-71
2022/05/07 05:23:26;;;;;;;14.88;12.43;;;;;;;;;;4910233;29;20042;-71
2022/05/07 05:25:52;;;;;;;16.77;12.52;;;;;;;;;;4946642;28;20035;-71
2022/05/07 05:28:28;;;;;;;14.32;11.50;;;;;;;;;;4943503;28;20473;-71
2022/05/07 05:30:59;;;;;;;17.13;12.68;;;;;;;;;;4950403;28;20035;-71
2022/05/07 05:33:26;;;;;;;13.55;11.43;;;;;;;;;;4946456;28;20147;-71
2022/05/07 05:36:12;;;;;;;13.90;11.35;;;;;;;;;;4938498;29;20202;-71
2022/05/07 05:38:41;;;;;;;12.40;10.85;;;;;;;;;;4938255;28;20639;-71
2022/05/07 05:41:08;;;;;;;12.30;10.50;;;;;;;;;;4907899;29;20035;-71
2022/05/07 05:43:38;;;;;;;14.55;11.73;;;;;;;;;;4941791;28;20101;-70
2022/05/07 05:46:05;;;;;;;13.98;11.27;;;;;;;;;;4945428;28;20030;-71
2022/05/07 05:48:30;;;;;;;15.27;11.27;;;;;;;;;;4946249;28;20221;-72
2022/05/07 05:50:57;;;;;;;12.50;10.93;;;;;;;;;;4947537;28;20035;-70
2022/05/07 05:53:25;;;;;;;14.13;11.70;;;;;;;;;;4939281;28;20070;-70
2022/05/07 05:55:52;;;;;;;14.07;11.70;;;;;;;;;;4941744;28;20075;-71
2022/05/07 05:58:23;;;;;;;13.73;11.68;;;;;;;;;;4938377;28;20033;-72
2022/05/07 06:00:50;;;;;;;13.90;10.55;;;;;;;;;;4938319;28;20039;-72
2022/05/07 06:03:16;;;;;;;14.07;10.95;;;;;;;;;;4955021;28;20035;-71
2022/05/07 06:05:42;;;;;;;14.93;12.23;;;;;;;;;;4928334;28;20087;-70
2022/05/07 06:08:07;;;;;;;14.38;11.73;;;;;;;;;;4942820;28;20174;-71
2022/05/07 06:10:39;;;;;;;15.40;12.45;;;;;;;;;;4945524;28;20031;-72
2022/05/07 06:13:09;;;;;;;18.15;12.43;;;;;;;;;;4909667;29;20042;-71
2022/05/07 06:15:40;;;;;;;14.43;11.70;;;;;;;;;;4911107;29;20070;-71
2022/05/07 06:18:07;;;;;;;14.70;12.05;;;;;;;;;;4937999;28;20536;-71
2022/05/07 06:20:32;;;;;;;15.27;11.15;;;;;;;;;;4938646;28;20091;-72
2022/05/07 06:23:01;;;;;;;15.63;12.10;;;;;;;;;;4937722;28;20043;-71
2022/05/07 06:28:17;;;;;;;13.98;11.50;;;;;;;;;;4938231;29;20751;-71
2022/05/07 06:30:43;;;;;;;13.57;11.07;;;;;;;;;;4938463;28;20560;-72
2022/05/07 06:33:11;;;;;;;16.42;11.57;;;;;;;;;;4937093;28;20110;-71
2022/05/07 06:35:44;;;;;;;15.80;12.13;;;;;;;;;;4942003;28;20102;-72
2022/05/07 06:38:16;;;;;;;13.90;11.55;;;;;;;;;;4945916;28;20043;-72
2022/05/07 06:40:46;;;;;;;14.13;11.40;;;;;;;;;;4938675;28;20043;-72
2022/05/07 06:43:12;;;;;;;14.13;11.70;;;;;;;;;;4938728;28;20046;-72
2022/05/07 06:45:49;;;;;;;12.77;11.38;;;;;;;;;;4939942;28;20743;-71
2022/05/07 06:48:16;;;;;;;13.43;11.25;;;;;;;;;;4953163;28;20039;-71
2022/05/07 06:50:41;;;;;;;11.77;10.57;;;;;;;;;;4938516;28;20035;-71
2022/05/07 06:53:08;;;;;;;14.15;10.32;;;;;;;;;;4938596;28;20563;-71
2022/05/07 06:55:54;;;;;;;12.30;10.57;;;;;;;;;;4923221;29;20039;-72
2022/05/07 06:58:20;;;;;;;12.40;10.38;;;;;;;;;;4930655;28;20401;-71
2022/05/07 07:00:45;;;;;;;14.80;10.90;;;;;;;;;;4923759;29;20595;-73
2022/05/07 07:03:10;;;;;;;13.13;10.73;;;;;;;;;;4924152;29;21070;-72
2022/05/07 07:05:36;;;;;;;14.35;11.48;;;;;;;;;;4923853;29;20114;-72
2022/05/07 07:08:01;;;;;;;12.38;10.35;;;;;;;;;;4927093;29;20058;-72
2022/05/07 07:10:27;;;;;;;12.88;10.80;;;;;;;;;;4923952;29;21259;-72
2022/05/07 07:12:52;;;;;;;11.95;10.57;;;;;;;;;;4923859;29;20079;-72
2022/05/07 07:15:17;;;;;;;16.45;11.52;;;;;;;;;;4923583;29;20039;-72
2022/05/07 07:17:44;;;;;;;17.40;12.05;;;;;;;;;;4922655;29;20106;-72
2022/05/07 07:20:10;;;;;;;17.10;11.88;;;;;;;;;;4934144;28;20130;-72
2022/05/07 07:22:36;;;;;;;20.42;13.20;;;;;;;;;;4928707;28;20038;-72
2022/05/07 07:25:05;;;;;;;16.55;12.25;;;;;;;;;;4938914;28;20416;-72
2022/05/07 07:27:31;;;;;;;17.90;12.50;;;;;;;;;;4928555;28;20043;-72
2022/05/07 07:29:56;;;;;;;15.93;12.30;;;;;;;;;;4927409;28;20040;-72
2022/05/07 07:32:21;;;;;;;16.27;12.40;;;;;;;;;;4931060;29;20408;-72
2022/05/07 07:34:47;;;;;;;15.15;11.82;;;;;;;;;;4923483;29;20042;-71
2022/05/07 07:37:12;;;;;;;15.98;12.20;;;;;;;;;;4923382;29;20039;-72
2022/05/07 07:39:38;;;;;;;13.38;11.65;;;;;;;;;;4929908;28;20226;-72
2022/05/07 07:42:03;;;;;;;13.60;11.45;;;;;;;;;;4931881;28;20047;-72
2022/05/07 07:44:29;;;;;;;14.18;11.50;;;;;;;;;;4925435;29;20039;-72
2022/05/07 07:49:39;;;;;;;15.15;12.25;;;;;;;;;;4941601;28;20556;-72
2022/05/07 07:52:05;;;;;;;16.17;12.63;;;;;;;;;;4930720;29;20047;-72
2022/05/07 07:54:32;;;;;;;15.20;11.52;;;;;;;;;;4926955;29;20670;-72
2022/05/07 07:57:02;;;;;;;12.93;10.55;;;;;;;;;;4927261;29;20047;-71
2022/05/07 07:59:28;;;;;;;14.55;11.73;;;;;;;;;;4936125;28;20043;-72
2022/05/07 08:01:53;;;;;;;14.65;10.73;;;;;;;;;;4926675;29;20048;-71
2022/05/07 08:04:20;;;;;;;11.65;10.32;;;;;;;;;;4926594;29;20046;-71
2022/05/07 08:11:39;;;;;;;14.52;10.43;;;;;;;;;;4926861;29;20046;-71
2022/05/07 08:12:36;;;;;;;16.90;11.95;;;;;;;;;;4904663;29;20046;-72
2022/05/07 08:15:03;;;;;;;12.38;10.80;;;;;;;;;;4889033;29;20040;-71
2022/05/07 08:17:28;;;;;;;13.93;11.38;;;;;;;;;;4918764;29;20058;-71
2022/05/07 08:19:53;;;;;;;12.82;11.38;;;;;;;;;;4926771;29;20114;-71
2022/05/07 08:22:19;;;;;;;13.93;11.00;;;;;;;;;;4933946;29;20035;-72
2022/05/07 08:24:44;;;;;;;23.58;12.82;;;;;;;;;;4933682;29;20837;-71
2022/05/07 08:27:10;;;;;;;16.52;11.77;;;;;;;;;;4926405;29;20035;-71
2022/05/07 08:29:36;;;;;;;16.25;11.88;;;;;;;;;;4924388;29;20053;-72
2022/05/07 08:32:01;;;;;;;20.52;12.93;;;;;;;;;;4926785;29;20493;-70
2022/05/07 08:34:27;;;;;;;17.85;13.10;;;;;;;;;;4928044;29;20035;-70
2022/05/07 08:36:52;;;;;;;17.00;12.57;;;;;;;;;;4950727;28;20416;-71
2022/05/07 08:39:18;;;;;;;17.02;12.15;;;;;;;;;;4926102;29;20040;-71
2022/05/07 08:41:44;;;;;;;16.10;11.77;;;;;;;;;;4926158;29;20051;-71
2022/05/07 08:44:10;;;;;;;13.57;10.95;;;;;;;;;;4926164;29;20071;-71
2022/05/07 08:46:38;;;;;;;12.10;9.77;;;;;;;;;;4925117;29;20649;-71
2022/05/07 08:49:04;;;;;;;11.40;9.75;;;;;;;;;;4933020;29;20094;-71
2022/05/07 08:51:30;;;;;;;12.45;9.07;;;;;;;;;;4926290;29;20164;-71
2022/05/07 08:53:56;;;;;;;12.43;10.23;;;;;;;;;;4925894;29;20047;-71
2022/05/07 08:56:24;;;;;;;13.95;11.20;;;;;;;;;;4927610;29;20035;-71
2022/05/07 08:58:51;;;;;;;18.33;12.30;;;;;;;;;;4927933;28;20412;-71
2022/05/07 09:01:16;;;;;;;16.02;11.50;;;;;;;;;;4926099;29;20564;-71
2022/05/07 09:03:45;;;;;;;16.55;12.55;;;;;;;;;;4927889;29;20048;-71
2022/05/07 09:06:15;;;;;;;17.23;12.48;;;;;;;;;;4925518;29;20031;-71
2022/05/07 09:08:41;;;;;;;18.05;13.10;;;;;;;;;;4929089;29;20117;-71
2022/05/07 09:11:06;;;;;;;19.40;13.80;;;;;;;;;;4925592;29;20280;-71
2022/05/07 09:13:35;;;;;;;21.80;14.50;;;;;;;;;;4926104;29;20544;-71
2022/05/07 09:16:02;;;;;;;21.25;14.80;;;;;;;;;;4925534;29;20044;-71
2022/05/07 09:18:31;;;;;;;21.35;14.85;;;;;;;;;;4924188;29;21035;-71
2022/05/07 09:21:16;;;;;;;19.88;14.30;;;;;;;;;;4925317;29;20544;-70
2022/05/07 09:23:46;;;;;;;23.30;15.68;;;;;;;;;;4927455;29;20254;-71
2022/05/07 09:26:43;;;;;;;27.17;17.20;;;;;;;;;;4934706;29;20463;-70
2022/05/07 09:29:13;;;;;;;21.08;15.23;;;;;;;;;;4927532;28;20043;-70
2022/05/07 09:31:44;;;;;;;20.40;14.85;;;;;;;;;;4933325;28;20119;-70
2022/05/07 09:37:12;;;;;;;21.90;15.10;;;;;;;;;;4926391;29;20058;-71
2022/05/07 09:39:38;;;;;;;19.55;14.55;;;;;;;;;;4932702;28;20126;-70
2022/05/07 09:42:06;;;;;;;20.17;14.02;;;;;;;;;;4924759;29;20118;-70
2022/05/07 09:44:33;;;;;;;16.83;13.60;;;;;;;;;;4929037;29;20580;-70
2022/05/07 09:46:59;;;;;;;19.02;14.38;;;;;;;;;;4924991;29;20047;-70
2022/05/07 09:49:26;;;;;;;16.08;13.15;;;;;;;;;;4924664;29;20047;-70
2022/05/07 09:51:53;;;;;;;18.27;13.40;;;;;;;;;;4924543;29;20512;-71
2022/05/07 09:59:51;;;;;;;17.60;13.38;;;;;;;;;;4924106;29;20122;-70
2022/05/07 10:02:32;;;;;;;18.00;13.30;;;;;;;;;;4924330;29;20057;-70
2022/05/07 10:05:41;;;;;;;18.80;13.85;;;;;;;;;;4941421;29;20074;-70
2022/05/07 10:08:17;;;;;;;20.38;14.98;;;;;;;;;;4904035;29;20062;-70
2022/05/07 10:10:46;;;;;;;17.38;13.75;;;;;;;;;;4929675;29;20071;-70
2022/05/07 10:13:16;;;;;;;14.90;12.65;;;;;;;;;;4930334;29;20048;-71
2022/05/07 10:15:43;;;;;;;14.60;12.48;;;;;;;;;;4926537;28;20146;-71
2022/05/07 10:18:14;;;;;;;16.27;12.07;;;;;;;;;;4924303;29;20044;-71
2022/05/07 10:20:47;;;;;;;14.25;11.38;;;;;;;;;;4939486;29;20078;-70
2022/05/07 10:23:15;;;;;;;12.55;11.25;;;;;;;;;;4924352;29;20039;-70
2022/05/07 10:25:43;;;;;;;15.50;11.32;;;;;;;;;;4926774;29;20409;-69
2022/05/07 10:28:14;;;;;;;13.38;11.80;;;;;;;;;;4938341;28;20040;-70
2022/05/07 10:30:50;;;;;;;12.82;11.43;;;;;;;;;;4924407;29;20053;-70
2022/05/07 10:33:18;;;;;;;12.20;10.93;;;;;;;;;;4924308;29;20508;-70
2022/05/07 10:35:54;;;;;;;13.15;11.68;;;;;;;;;;4942737;28;20048;-70
2022/05/07 10:38:24;;;;;;;12.68;11.38;;;;;;;;;;4927838;29;20171;-71
2022/05/07 10:40:58;;;;;;;18.70;11.68;;;;;;;;;;4926837;28;20382;-72
2022/05/07 10:43:33;;;;;;;12.73;11.05;;;;;;;;;;4924518;29;20648;-72
2022/05/07 10:46:03;;;;;;;17.42;11.35;;;;;;;;;;4924036;29;20036;-71
2022/05/07 10:48:41;;;;;;;16.67;11.98;;;;;;;;;;4926999;29;20150;-71
2022/05/07 10:51:16;;;;;;;16.73;12.32;;;;;;;;;;4924168;29;20043;-71
2022/05/07 10:53:42;;;;;;;13.20;10.68;;;;;;;;;;4935858;29;20118;-71
2022/05/07 10:56:14;;;;;;;14.45;11.15;;;;;;;;;;4938383;28;20863;-72
2022/05/07 10:58:53;;;;;;;14.43;11.90;;;;;;;;;;4925891;29;20734;-71
2022/05/07 11:01:21;;;;;;;13.02;11.30;;;;;;;;;;4927551;29;20046;-71
2022/05/07 11:03:47;;;;;;;12.73;10.85;;;;;;;;;;4923801;29;20123;-71
2022/05/07 11:06:13;;;;;;;13.25;11.18;;;;;;;;;;4921335;29;20978;-71
2022/05/07 11:08:54;;;;;;;12.98;11.30;;;;;;;;;;4922760;29;20040;-71
2022/05/07 11:11:20;;;;;;;16.80;10.85;;;;;;;;;;4924066;29;20047;-73
2022/05/07 11:13:50;;;;;;;13.95;10.63;;;;;;;;;;4924199;29;20042;-72
2022/05/07 11:16:18;;;;;;;12.25;10.93;;;;;;;;;;4923341;29;20044;-69
2022/05/07 11:18:51;;;;;;;11.88;10.00;;;;;;;;;;4923863;29;20044;-70
2022/05/07 11:21:19;;;;;;;11.63;10.38;;;;;;;;;;4931483;29;20559;-72
2022/05/07 11:23:53;;;;;;;13.00;11.55;;;;;;;;;;4927756;29;20162;-71
2022/05/07 11:26:20;;;;;;;12.82;11.43;;;;;;;;;;4927594;29;20047;-72
2022/05/07 11:28:47;;;;;;;13.38;11.98;;;;;;;;;;4927200;29;20043;-72
2022/05/07 11:31:24;;;;;;;10.90;9.80;;;;;;;;;;4927296;29;20163;-72
2022/05/07 11:34:02;;;;;;;12.70;10.93;;;;;;;;;;4927671;29;20544;-72
2022/05/07 11:36:28;;;;;;;13.57;10.43;;;;;;;;;;4927089;29;20115;-72
2022/05/07 11:38:58;;;;;;;12.77;10.38;;;;;;;;;;4926253;29;20465;-71
2022/05/07 11:41:23;;;;;;;11.20;9.15;;;;;;;;;;4932773;28;20044;-71
2022/05/07 11:46:33;;;;;;;12.05;10.43;;;;;;;;;;4931093;29;20024;-71
2022/05/07 11:49:08;;;;;;;10.77;9.45;;;;;;;;;;4937312;28;20633;-71
2022/05/07 11:51:35;;;;;;;11.02;9.32;;;;;;;;;;4935174;29;20493;-70
2022/05/07 11:54:10;;;;;;;10.70;9.60;;;;;;;;;;4936545;29;20039;-70
2022/05/07 11:56:46;;;;;;;9.98;8.52;;;;;;;;;;4927420;29;20080;-71
2022/05/07 11:59:13;;;;;;;9.68;7.70;;;;;;;;;;4926716;29;20075;-71
2022/05/07 12:01:39;;;;;;;8.43;7.53;;;;;;;;;;4927045;29;20051;-71
2022/05/07 12:04:09;;;;;;;9.40;8.48;;;;;;;;;;4930752;29;20043;-74
2022/05/07 12:06:34;;;;;;;9.18;8.27;;;;;;;;;;4926313;29;20034;-72
2022/05/07 12:09:20;;;;;;;8.93;7.80;;;;;;;;;;4924700;29;20046;-73
2022/05/07 12:11:45;;;;;;;9.48;7.75;;;;;;;;;;4928846;29;20050;-73
2022/05/07 12:14:11;;;;;;;9.00;8.10;;;;;;;;;;4924611;29;20449;-74
2022/05/07 12:19:27;;;;;;;9.52;7.03;;;;;;;;;;4930457;28;20039;-73
2022/05/07 12:30:06;;;;;;;6.22;5.47;;;;;;;;;;4939920;28;20075;-73
2022/05/07 12:32:31;;;;;;;6.72;5.78;;;;;;;;;;4924637;29;20046;-74
2022/05/07 12:34:57;;;;;;;10.55;6.70;;;;;;;;;;4926008;29;20047;-72
2022/05/07 12:37:22;;;;;;;8.05;6.25;;;;;;;;;;4929771;29;20046;-73
2022/05/07 12:39:48;;;;;;;9.60;5.55;;;;;;;;;;4925923;29;20052;-72
2022/05/07 12:42:14;;;;;;;6.40;5.78;;;;;;;;;;4926597;29;20031;-71
2022/05/07 12:44:44;;;;;;;7.03;6.32;;;;;;;;;;4926268;29;20043;-73
2022/05/07 12:47:10;;;;;;;6.40;5.80;;;;;;;;;;4928084;29;20102;-73
2022/05/07 12:49:35;;;;;;;5.70;5.20;;;;;;;;;;4926169;29;20552;-74
2022/05/07 12:52:07;;;;;;;7.05;5.72;;;;;;;;;;4931930;29;20065;-72
2022/05/07 12:54:33;;;;;;;;;;;;;;;;;;4932853;29;20054;-73
2022/05/07 12:56:58;;;;;;;7.30;6.18;;;;;;;;;;4929612;29;19923;-73
2022/05/07 12:59:25;;;;;;;9.43;6.22;;;;;;;;;;4931138;29;20039;-73
2022/05/07 13:01:50;;;;;;;6.93;6.20;;;;;;;;;;4927410;28;20118;-73
2022/05/07 13:04:16;;;;;;;8.35;7.07;;;;;;;;;;4930319;29;20097;-72
2022/05/07 13:06:42;;;;;;;9.48;7.40;;;;;;;;;;4926161;29;20512;-71
2022/05/07 13:09:07;;;;;;;8.32;7.30;;;;;;;;;;4929923;28;20071;-71
2022/05/07 13:11:33;;;;;;;9.25;7.47;;;;;;;;;;4935031;29;20078;-73
2022/05/07 13:13:59;;;;;;;8.75;7.40;;;;;;;;;;4937735;29;20027;-73
2022/05/07 13:16:24;;;;;;;8.02;7.22;;;;;;;;;;4938505;28;20114;-72
2022/05/07 13:18:50;;;;;;;8.50;7.65;;;;;;;;;;4936121;28;20042;-73
2022/05/07 13:21:15;;;;;;;11.80;8.77;;;;;;;;;;4939117;29;20389;-73
2022/05/07 13:23:41;;;;;;;10.32;9.23;;;;;;;;;;4950856;28;20039;-73
2022/05/07 13:26:07;;;;;;;11.35;9.98;;;;;;;;;;4937217;29;20081;-73
2022/05/07 13:28:33;;;;;;;11.95;9.35;;;;;;;;;;4938990;28;20063;-75
2022/05/07 13:30:59;;;;;;;11.68;9.63;;;;;;;;;;4935224;28;20129;-74
2022/05/07 13:33:25;;;;;;;15.48;9.65;;;;;;;;;;4950817;28;20046;-73
2022/05/07 13:35:51;;;;;;;12.85;10.45;;;;;;;;;;4939409;29;20043;-73
2022/05/07 13:38:17;;;;;;;11.55;10.30;;;;;;;;;;4934852;29;20039;-73
2022/05/07 13:40:42;;;;;;;12.38;10.27;;;;;;;;;;4935421;28;20118;-73
2022/05/07 13:43:08;;;;;;;14.38;10.65;;;;;;;;;;4934418;29;20046;-73
2022/05/07 13:45:34;;;;;;;15.38;10.82;;;;;;;;;;4933469;29;20054;-73
2022/05/07 13:47:59;;;;;;;17.33;11.02;;;;;;;;;;4935297;29;20074;-73
2022/05/07 13:50:24;;;;;;;10.52;9.43;;;;;;;;;;4936901;28;20039;-73
2022/05/07 13:52:50;;;;;;;11.23;9.93;;;;;;;;;;4929682;29;20122;-73
2022/05/07 13:55:15;;;;;;;12.07;10.43;;;;;;;;;;4930756;29;20046;-72
2022/05/07 13:57:41;;;;;;;11.27;9.93;;;;;;;;;;4932197;29;20035;-73
2022/05/07 14:00:08;;;;;;;9.48;7.68;;;;;;;;;;4932009;29;20051;-73
2022/05/07 14:02:40;;;;;;;10.73;9.13;;;;;;;;;;4926337;29;20047;-73
2022/05/07 14:05:06;;;;;;;9.93;8.38;;;;;;;;;;4926862;29;20075;-73
2022/05/07 14:07:32;;;;;;;8.90;8.00;;;;;;;;;;4932944;28;20971;-73
2022/05/07 14:09:58;;;;;;;9.95;7.70;;;;;;;;;;4929371;29;20036;-72
2022/05/07 14:12:23;;;;;;;8.15;6.18;;;;;;;;;;4933252;29;20664;-72
2022/05/07 14:14:50;;;;;;;7.25;6.50;;;;;;;;;;4922170;29;20047;-73
2022/05/07 14:17:15;;;;;;;6.53;5.93;;;;;;;;;;4927598;29;20035;-72
2022/05/07 14:19:41;;;;;;;6.63;6.00;;;;;;;;;;4932766;28;20177;-72
2022/05/07 14:22:07;;;;;;;6.72;6.03;;;;;;;;;;4925859;29;20043;-72
2022/05/07 14:24:33;;;;;;;6.47;5.88;;;;;;;;;;4924872;28;20081;-72
2022/05/07 14:26:59;;;;;;;8.70;6.32;;;;;;;;;;4929796;29;20583;-72
2022/05/07 14:29:26;;;;;;;8.35;7.40;;;;;;;;;;4932571;28;20046;-72
2022/05/07 14:31:52;;;;;;;7.93;7.13;;;;;;;;;;4929296;29;20076;-73
2022/05/07 14:34:20;;;;;;;9.25;8.02;;;;;;;;;;4929279;29;20147;-73
2022/05/07 14:36:46;;;;;;;10.52;7.50;;;;;;;;;;4929637;29;20210;-73
2022/05/07 14:39:12;;;;;;;8.10;7.30;;;;;;;;;;4925167;29;20039;-73
2022/05/07 14:41:41;;;;;;;8.02;7.22;;;;;;;;;;4945059;28;20042;-72
2022/05/07 14:44:07;;;;;;;11.48;7.47;;;;;;;;;;4931220;29;20043;-73
2022/05/07 14:46:33;;;;;;;8.18;7.38;;;;;;;;;;4930201;28;20042;-72
2022/05/07 14:48:58;;;;;;;7.38;6.60;;;;;;;;;;4928741;29;20046;-73
2022/05/07 14:51:25;;;;;;;6.55;5.18;;;;;;;;;;4931342;29;20044;-73
2022/05/07 14:53:50;;;;;;;5.00;4.50;;;;;;;;;;4927180;29;20508;-72
2022/05/07 14:56:16;;;;;;;4.70;4.30;;;;;;;;;;4929954;29;20054;-73
2022/05/07 14:58:41;;;;;;;4.32;3.92;;;;;;;;;;4929516;29;20027;-72
2022/05/07 15:01:08;;;;;;;3.83;3.47;;;;;;;;;;4928314;29;20035;-72
2022/05/07 15:03:34;;;;;;;4.80;4.30;;;;;;;;;;4931164;28;20078;-73
2022/05/07 15:06:01;;;;;;;4.10;3.80;;;;;;;;;;4925711;29;20035;-73
2022/05/07 15:11:11;;;;;;;3.85;3.55;;;;;;;;;;4930487;29;20044;-73
2022/05/07 15:13:39;;;;;;;4.30;3.90;;;;;;;;;;4932574;29;20043;-73